Time;durP1;ratioP1;P1;durP2;ratioP2;P2;SDS_P1;SDS_P2;PMS_P1;PMS_P2;Temp;Humidity;BMP_temperature;BMP_pressure;BME280_temperature;BME280_humidity;BME280_pressure;Samples;Min_cycle;Max_cycle;Signal;HPM_P1;HPM_P2
2022/05/31 00:00:27;;;;;;;4.22;1.67;;;;;;;;;;5053264;28;20033;-61
2022/05/31 00:02:54;;;;;;;3.83;2.00;;;;;;;;;;5059094;28;20086;-62
2022/05/31 00:05:21;;;;;;;2.50;1.55;;;;;;;;;;5054101;28;20024;-62
2022/05/31 00:07:47;;;;;;;4.28;1.73;;;;;;;;;;5053845;28;20029;-62
2022/05/31 00:10:14;;;;;;;5.95;1.45;;;;;;;;;;5054053;28;20029;-61
2022/05/31 00:12:41;;;;;;;3.78;2.50;;;;;;;;;;5053847;28;20497;-61
2022/05/31 00:15:08;;;;;;;2.53;1.67;;;;;;;;;;5053877;28;20067;-61
2022/05/31 00:17:34;;;;;;;5.20;2.05;;;;;;;;;;5054019;28;20033;-62
2022/05/31 00:20:00;;;;;;;2.15;1.38;;;;;;;;;;5060734;28;20484;-61
2022/05/31 00:22:27;;;;;;;2.72;1.80;;;;;;;;;;5053895;28;20487;-62
2022/05/31 00:24:53;;;;;;;5.00;1.55;;;;;;;;;;5053773;28;20025;-62
2022/05/31 00:27:21;;;;;;;4.22;1.70;;;;;;;;;;5063091;28;20052;-62
2022/05/31 00:29:47;;;;;;;4.75;1.90;;;;;;;;;;5052337;28;20032;-61
2022/05/31 00:32:15;;;;;;;3.40;1.83;;;;;;;;;;5057477;28;20021;-62
2022/05/31 00:34:44;;;;;;;2.97;1.73;;;;;;;;;;5053199;28;20068;-62
2022/05/31 00:37:10;;;;;;;3.75;2.25;;;;;;;;;;5063358;28;20057;-62
2022/05/31 00:39:37;;;;;;;3.22;1.70;;;;;;;;;;5057005;28;20024;-61
2022/05/31 00:42:08;;;;;;;4.55;1.83;;;;;;;;;;5045308;28;20467;-61
2022/05/31 00:44:35;;;;;;;2.45;1.92;;;;;;;;;;5050462;28;20136;-62
2022/05/31 00:47:04;;;;;;;3.13;1.60;;;;;;;;;;5050646;28;20026;-62
2022/05/31 00:49:38;;;;;;;5.78;1.70;;;;;;;;;;5057043;28;20056;-61
2022/05/31 00:52:11;;;;;;;4.60;1.60;;;;;;;;;;5054846;28;20083;-62
2022/05/31 00:54:37;;;;;;;;;;;;;;;;;;5052028;28;20025;-61
2022/05/31 00:57:04;;;;;;;6.10;2.10;;;;;;;;;;5060843;28;20299;-62
2022/05/31 00:59:42;;;;;;;4.13;1.83;;;;;;;;;;5054906;28;20044;-62
2022/05/31 01:02:09;;;;;;;4.13;1.58;;;;;;;;;;5053511;28;20025;-62
2022/05/31 01:04:40;;;;;;;4.63;1.73;;;;;;;;;;5052632;28;20515;-62
2022/05/31 01:07:06;;;;;;;3.38;1.90;;;;;;;;;;5053176;28;20036;-62
2022/05/31 01:09:33;;;;;;;3.58;2.70;;;;;;;;;;5051710;28;20459;-62
2022/05/31 01:12:19;;;;;;;4.13;1.83;;;;;;;;;;5058763;28;20035;-61
2022/05/31 01:15:19;;;;;;;5.07;2.10;;;;;;;;;;5030463;28;20444;-62
2022/05/31 01:18:04;;;;;;;2.45;1.75;;;;;;;;;;5052611;28;20091;-61
2022/05/31 01:20:48;;;;;;;2.70;1.83;;;;;;;;;;5052295;28;20032;-61
2022/05/31 01:23:18;;;;;;;7.90;2.45;;;;;;;;;;5051395;28;20032;-61
2022/05/31 01:25:59;;;;;;;3.97;1.75;;;;;;;;;;5056625;28;20033;-62
2022/05/31 01:28:33;;;;;;;3.10;1.92;;;;;;;;;;5052710;28;20037;-61
2022/05/31 01:31:02;;;;;;;3.30;1.90;;;;;;;;;;5052565;28;20033;-62
2022/05/31 01:33:40;;;;;;;3.05;1.83;;;;;;;;;;5057765;28;20508;-61
2022/05/31 01:36:12;;;;;;;2.67;1.67;;;;;;;;;;5051045;28;20103;-62
2022/05/31 01:38:41;;;;;;;5.95;2.10;;;;;;;;;;5051095;28;20033;-61
2022/05/31 01:41:13;;;;;;;4.75;1.75;;;;;;;;;;5052501;28;20017;-62
2022/05/31 01:43:42;;;;;;;2.30;1.73;;;;;;;;;;5046403;28;20397;-62
2022/05/31 01:46:11;;;;;;;4.32;3.08;;;;;;;;;;5052346;28;20029;-61
2022/05/31 01:48:38;;;;;;;2.25;1.63;;;;;;;;;;5051889;28;20053;-62
2022/05/31 01:51:05;;;;;;;3.22;1.70;;;;;;;;;;5062457;28;20075;-61
2022/05/31 01:53:33;;;;;;;2.40;1.85;;;;;;;;;;5051234;28;20124;-61
2022/05/31 01:55:59;;;;;;;2.38;1.80;;;;;;;;;;5050359;28;20111;-62
2022/05/31 01:58:29;;;;;;;4.22;1.70;;;;;;;;;;5053585;28;20052;-61
2022/05/31 02:00:56;;;;;;;3.25;2.03;;;;;;;;;;5050555;28;20439;-61
2022/05/31 02:03:23;;;;;;;2.65;1.85;;;;;;;;;;5051664;28;20412;-61
2022/05/31 02:05:53;;;;;;;3.60;1.98;;;;;;;;;;5051797;28;20063;-61
2022/05/31 02:08:22;;;;;;;3.20;2.20;;;;;;;;;;5058290;28;20086;-61
2022/05/31 02:10:49;;;;;;;3.13;1.80;;;;;;;;;;5050465;28;20416;-61
2022/05/31 02:13:16;;;;;;;2.55;1.98;;;;;;;;;;5054877;28;20044;-61
2022/05/31 02:16:11;;;;;;;5.35;2.28;;;;;;;;;;5048095;28;20025;-62
2022/05/31 02:21:58;;;;;;;6.65;2.15;;;;;;;;;;5070895;28;20025;-61
2022/05/31 02:24:25;;;;;;;4.30;1.92;;;;;;;;;;5051649;28;20025;-61
2022/05/31 02:26:52;;;;;;;2.97;1.92;;;;;;;;;;5052722;28;20028;-61
2022/05/31 02:29:20;;;;;;;6.43;2.10;;;;;;;;;;5060207;28;20035;-61
2022/05/31 02:31:47;;;;;;;2.75;1.80;;;;;;;;;;5052721;28;20025;-61
2022/05/31 02:34:15;;;;;;;3.92;2.15;;;;;;;;;;5051579;28;20112;-61
2022/05/31 02:36:41;;;;;;;2.70;1.85;;;;;;;;;;5050003;28;20025;-61
2022/05/31 02:39:08;;;;;;;4.10;2.08;;;;;;;;;;5051384;28;20025;-61
2022/05/31 02:41:38;;;;;;;3.70;2.00;;;;;;;;;;5078055;28;20022;-62
2022/05/31 02:44:04;;;;;;;5.07;2.20;;;;;;;;;;5051007;28;20025;-61
2022/05/31 02:46:31;;;;;;;6.28;2.40;;;;;;;;;;5062809;28;20507;-61
2022/05/31 02:48:57;;;;;;;4.05;1.73;;;;;;;;;;5048629;28;20029;-62
2022/05/31 02:51:23;;;;;;;5.30;2.88;;;;;;;;;;5052185;28;20013;-61
2022/05/31 02:53:49;;;;;;;4.13;2.00;;;;;;;;;;5050284;28;20485;-61
2022/05/31 02:56:20;;;;;;;3.28;1.80;;;;;;;;;;5051786;28;20036;-61
2022/05/31 02:59:07;;;;;;;3.33;1.98;;;;;;;;;;5053157;28;20517;-61
2022/05/31 03:01:59;;;;;;;2.83;1.70;;;;;;;;;;5028707;28;20038;-61
2022/05/31 03:05:01;;;;;;;3.13;1.90;;;;;;;;;;4970145;28;20030;-61
2022/05/31 03:07:56;;;;;;;6.60;3.25;;;;;;;;;;4970229;28;20069;-61
2022/05/31 03:10:31;;;;;;;2.97;1.73;;;;;;;;;;4954698;28;20050;-61
2022/05/31 03:12:57;;;;;;;5.10;1.75;;;;;;;;;;4953666;28;20031;-61
2022/05/31 03:15:24;;;;;;;5.18;2.15;;;;;;;;;;4968716;28;20039;-61
2022/05/31 03:17:54;;;;;;;2.75;2.00;;;;;;;;;;4971860;28;20069;-61
2022/05/31 03:20:26;;;;;;;2.58;1.70;;;;;;;;;;4966317;28;20123;-61
2022/05/31 03:23:03;;;;;;;4.82;1.98;;;;;;;;;;4971921;28;20155;-61
2022/05/31 03:25:29;;;;;;;2.80;1.83;;;;;;;;;;4952820;28;20491;-61
2022/05/31 03:27:57;;;;;;;4.07;2.17;;;;;;;;;;4970903;28;20061;-61
2022/05/31 03:30:23;;;;;;;3.65;1.95;;;;;;;;;;4966542;28;20050;-61
2022/05/31 03:32:50;;;;;;;2.95;1.92;;;;;;;;;;4968927;28;20134;-62
2022/05/31 03:35:16;;;;;;;4.10;2.60;;;;;;;;;;4949391;28;20033;-61
2022/05/31 03:37:43;;;;;;;2.95;2.33;;;;;;;;;;4954998;28;20027;-61
2022/05/31 03:43:11;;;;;;;3.20;2.05;;;;;;;;;;5076147;28;20020;-61
2022/05/31 03:45:42;;;;;;;3.47;2.33;;;;;;;;;;5050794;28;20435;-61
2022/05/31 03:48:30;;;;;;;2.25;1.85;;;;;;;;;;5048128;28;20076;-61
2022/05/31 03:51:04;;;;;;;4.22;2.13;;;;;;;;;;5049136;28;20060;-61
2022/05/31 03:53:31;;;;;;;3.33;2.30;;;;;;;;;;5047802;28;20116;-61
2022/05/31 03:56:00;;;;;;;3.15;2.15;;;;;;;;;;5048667;28;20091;-61
2022/05/31 03:58:27;;;;;;;3.08;2.00;;;;;;;;;;5048308;28;20080;-61
2022/05/31 04:00:56;;;;;;;3.40;2.10;;;;;;;;;;5042796;28;20052;-61
2022/05/31 04:03:25;;;;;;;4.38;2.15;;;;;;;;;;5036832;28;20409;-61
2022/05/31 04:05:52;;;;;;;3.60;1.90;;;;;;;;;;5070604;28;20049;-61
2022/05/31 04:08:20;;;;;;;2.42;1.90;;;;;;;;;;5066122;28;20049;-61
2022/05/31 04:10:47;;;;;;;9.27;2.20;;;;;;;;;;5036800;28;20515;-61
2022/05/31 04:13:14;;;;;;;3.78;2.30;;;;;;;;;;5050149;28;20021;-61
2022/05/31 04:16:11;;;;;;;3.33;2.42;;;;;;;;;;5041404;28;20045;-61
2022/05/31 04:18:41;;;;;;;4.38;2.28;;;;;;;;;;5046761;28;20568;-61
2022/05/31 04:21:08;;;;;;;3.63;2.10;;;;;;;;;;5038492;28;20486;-61
2022/05/31 04:26:43;;;;;;;6.07;2.65;;;;;;;;;;5032888;28;20120;-61
2022/05/31 04:29:28;;;;;;;3.65;2.47;;;;;;;;;;5033522;28;20184;-61
2022/05/31 04:32:13;;;;;;;5.30;2.40;;;;;;;;;;5048501;28;20039;-62
2022/05/31 04:34:39;;;;;;;3.15;2.15;;;;;;;;;;5047911;28;20493;-61
2022/05/31 04:37:06;;;;;;;5.00;2.47;;;;;;;;;;5039267;28;20032;-61
2022/05/31 04:39:51;;;;;;;4.30;2.45;;;;;;;;;;5033566;28;20413;-61
2022/05/31 04:42:26;;;;;;;7.78;2.40;;;;;;;;;;5036669;28;20025;-62
2022/05/31 04:44:53;;;;;;;6.10;2.25;;;;;;;;;;5032241;28;20048;-61
2022/05/31 04:47:19;;;;;;;3.42;2.00;;;;;;;;;;5031918;28;20402;-61
2022/05/31 04:49:49;;;;;;;3.60;2.40;;;;;;;;;;5039852;28;20467;-62
2022/05/31 04:52:17;;;;;;;3.65;2.25;;;;;;;;;;5052057;28;20052;-62
2022/05/31 04:54:49;;;;;;;3.75;2.47;;;;;;;;;;5052348;28;20024;-62
2022/05/31 04:57:35;;;;;;;2.50;2.22;;;;;;;;;;5061749;28;20165;-62
2022/05/31 05:00:03;;;;;;;3.95;2.53;;;;;;;;;;5055780;28;20040;-61
2022/05/31 05:02:31;;;;;;;2.33;1.95;;;;;;;;;;5055215;28;20021;-62
2022/05/31 05:05:03;;;;;;;4.27;2.27;;;;;;;;;;5051677;28;20040;-62
2022/05/31 05:07:49;;;;;;;3.67;2.50;;;;;;;;;;5051685;28;20272;-62
2022/05/31 05:10:17;;;;;;;6.13;2.92;;;;;;;;;;5051806;28;20017;-62
2022/05/31 05:13:21;;;;;;;3.17;2.20;;;;;;;;;;5052502;28;20037;-62
2022/05/31 05:16:06;;;;;;;4.60;2.20;;;;;;;;;;5043287;28;20055;-62
2022/05/31 05:18:37;;;;;;;3.40;3.08;;;;;;;;;;5048810;28;20036;-62
2022/05/31 05:21:04;;;;;;;5.38;2.25;;;;;;;;;;5044200;28;20068;-62
2022/05/31 05:23:32;;;;;;;3.45;2.17;;;;;;;;;;5035670;28;20029;-62
2022/05/31 05:26:03;;;;;;;5.88;2.20;;;;;;;;;;5043638;28;20450;-62
2022/05/31 05:31:39;;;;;;;12.02;5.85;;;;;;;;;;5041477;28;20382;-63
2022/05/31 05:34:24;;;;;;;17.55;8.55;;;;;;;;;;5039685;28;20534;-62
2022/05/31 05:36:58;;;;;;;7.90;4.93;;;;;;;;;;5046579;28;20446;-65
2022/05/31 05:39:25;;;;;;;4.53;3.15;;;;;;;;;;5039765;28;20040;-63
2022/05/31 05:42:26;;;;;;;6.68;2.90;;;;;;;;;;5048606;28;20396;-64
2022/05/31 05:45:13;;;;;;;10.02;3.53;;;;;;;;;;5013961;28;20060;-63
2022/05/31 05:47:41;;;;;;;7.20;3.63;;;;;;;;;;5020218;28;20458;-64
2022/05/31 05:50:08;;;;;;;4.30;3.58;;;;;;;;;;5020377;28;20064;-63
2022/05/31 05:52:51;;;;;;;8.32;4.40;;;;;;;;;;5010405;28;20217;-63
2022/05/31 05:55:39;;;;;;;10.30;4.35;;;;;;;;;;5010555;28;20128;-63
2022/05/31 05:58:24;;;;;;;11.80;3.92;;;;;;;;;;5006335;28;20579;-63
2022/05/31 06:01:14;;;;;;;8.13;3.88;;;;;;;;;;5014587;28;20104;-63
2022/05/31 06:03:52;;;;;;;9.00;4.07;;;;;;;;;;4987744;28;20066;-63
2022/05/31 06:06:18;;;;;;;7.85;4.00;;;;;;;;;;4989963;28;20458;-63
2022/05/31 06:08:54;;;;;;;8.75;4.38;;;;;;;;;;5008538;28;20394;-63
2022/05/31 06:11:22;;;;;;;10.75;4.88;;;;;;;;;;4995887;28;20038;-63
2022/05/31 06:13:52;;;;;;;15.20;5.30;;;;;;;;;;4990890;28;20038;-63
2022/05/31 06:16:20;;;;;;;11.35;5.13;;;;;;;;;;5008353;28;20053;-63
2022/05/31 06:18:48;;;;;;;7.40;5.07;;;;;;;;;;4993747;28;20096;-63
2022/05/31 06:21:15;;;;;;;7.95;5.07;;;;;;;;;;4996305;28;20026;-63
2022/05/31 06:23:43;;;;;;;7.85;5.40;;;;;;;;;;5050456;28;20487;-63
2022/05/31 06:26:13;;;;;;;10.45;6.22;;;;;;;;;;5050750;28;20036;-63
2022/05/31 06:28:42;;;;;;;15.95;6.35;;;;;;;;;;5050973;28;20028;-63
2022/05/31 06:31:08;;;;;;;16.13;7.43;;;;;;;;;;5050904;28;20510;-63
2022/05/31 06:33:35;;;;;;;15.07;7.40;;;;;;;;;;5050803;28;20041;-63
2022/05/31 06:36:02;;;;;;;20.95;7.75;;;;;;;;;;5050897;28;20029;-63
2022/05/31 06:38:30;;;;;;;15.27;6.72;;;;;;;;;;5050268;28;20079;-63
2022/05/31 06:40:56;;;;;;;15.82;6.80;;;;;;;;;;5050743;28;20444;-63
2022/05/31 06:43:41;;;;;;;12.50;7.00;;;;;;;;;;5050439;28;20120;-63
2022/05/31 06:46:26;;;;;;;16.38;6.53;;;;;;;;;;5052193;28;20452;-63
2022/05/31 06:49:10;;;;;;;8.93;6.03;;;;;;;;;;5052007;28;20039;-64
2022/05/31 06:58:50;;;;;;;13.40;5.25;;;;;;;;;;4955431;28;20476;-64
2022/05/31 07:01:16;;;;;;;12.93;5.43;;;;;;;;;;4963930;28;20070;-63
2022/05/31 07:03:43;;;;;;;13.60;5.05;;;;;;;;;;4952055;29;20074;-63
2022/05/31 07:06:09;;;;;;;10.60;4.85;;;;;;;;;;4971382;28;20035;-64
2022/05/31 07:08:39;;;;;;;10.68;4.32;;;;;;;;;;4965455;28;20032;-63
2022/05/31 07:11:22;;;;;;;9.20;4.05;;;;;;;;;;4952503;29;20528;-63
2022/05/31 07:14:07;;;;;;;9.82;4.45;;;;;;;;;;4955616;29;20593;-63
2022/05/31 07:16:51;;;;;;;6.32;3.85;;;;;;;;;;4955300;29;20495;-63
2022/05/31 07:19:50;;;;;;;10.45;3.38;;;;;;;;;;4950557;29;20442;-63
2022/05/31 07:22:16;;;;;;;9.07;3.40;;;;;;;;;;4982607;28;20038;-64
2022/05/31 07:24:43;;;;;;;7.95;3.40;;;;;;;;;;4997252;28;20117;-64
2022/05/31 07:27:19;;;;;;;7.45;3.25;;;;;;;;;;5034144;28;20022;-63
2022/05/31 07:29:47;;;;;;;8.00;2.97;;;;;;;;;;5033882;28;20029;-63
2022/05/31 07:32:13;;;;;;;6.75;2.50;;;;;;;;;;5034427;28;20401;-63
2022/05/31 07:34:39;;;;;;;7.90;2.50;;;;;;;;;;5034212;28;20029;-64
2022/05/31 07:37:05;;;;;;;5.40;2.20;;;;;;;;;;5041014;28;20492;-64
2022/05/31 07:39:31;;;;;;;4.47;2.38;;;;;;;;;;5052767;28;20025;-63
2022/05/31 07:41:58;;;;;;;6.22;2.30;;;;;;;;;;5052983;28;20032;-63
2022/05/31 07:44:26;;;;;;;7.20;1.92;;;;;;;;;;5061591;28;20492;-63
2022/05/31 07:46:54;;;;;;;5.20;2.13;;;;;;;;;;5044620;28;20036;-63
2022/05/31 07:49:21;;;;;;;3.97;1.92;;;;;;;;;;5053078;28;20028;-63
2022/05/31 07:52:09;;;;;;;4.47;1.52;;;;;;;;;;5054852;28;20070;-64
2022/05/31 07:54:54;;;;;;;5.13;1.90;;;;;;;;;;5054979;28;20515;-63
2022/05/31 08:00:30;;;;;;;6.05;1.45;;;;;;;;;;5051556;28;20063;-64
2022/05/31 08:02:57;;;;;;;4.35;1.35;;;;;;;;;;5051529;28;20464;-64
2022/05/31 08:05:23;;;;;;;3.95;1.02;;;;;;;;;;5052635;28;20036;-64
2022/05/31 08:07:50;;;;;;;2.25;1.10;;;;;;;;;;5052852;28;20032;-64
2022/05/31 08:10:17;;;;;;;4.75;1.10;;;;;;;;;;5053237;28;20095;-64
2022/05/31 08:12:43;;;;;;;3.05;1.10;;;;;;;;;;5052709;28;20033;-64
2022/05/31 08:15:10;;;;;;;5.18;1.33;;;;;;;;;;5053146;28;20021;-64
2022/05/31 08:17:36;;;;;;;2.47;1.00;;;;;;;;;;5076988;28;20033;-64
2022/05/31 08:20:04;;;;;;;5.85;1.20;;;;;;;;;;5057834;28;20039;-64
2022/05/31 08:22:30;;;;;;;3.65;1.00;;;;;;;;;;5052640;28;20025;-64
2022/05/31 08:24:56;;;;;;;3.00;2.15;;;;;;;;;;5052756;28;20100;-64
2022/05/31 08:27:23;;;;;;;2.05;1.05;;;;;;;;;;5052983;28;20515;-64
2022/05/31 08:29:49;;;;;;;3.75;1.10;;;;;;;;;;5050902;28;20033;-64
2022/05/31 08:32:15;;;;;;;2.25;1.17;;;;;;;;;;5051377;28;20527;-64
2022/05/31 08:34:42;;;;;;;2.72;1.10;;;;;;;;;;5045962;28;20497;-64
2022/05/31 08:37:08;;;;;;;6.32;1.10;;;;;;;;;;5044864;28;20097;-64
2022/05/31 08:39:34;;;;;;;2.42;1.00;;;;;;;;;;5049075;28;20029;-64
2022/05/31 08:42:08;;;;;;;2.45;0.80;;;;;;;;;;5048939;28;20405;-64
2022/05/31 08:44:53;;;;;;;3.13;1.10;;;;;;;;;;5052867;28;20033;-64
2022/05/31 08:47:23;;;;;;;2.85;1.10;;;;;;;;;;5044614;28;20066;-64
2022/05/31 08:52:36;;;;;;;3.33;1.15;;;;;;;;;;5084823;28;20037;-64
2022/05/31 08:57:59;;;;;;;3.08;1.10;;;;;;;;;;5084343;28;20116;-64
2022/05/31 09:00:28;;;;;;;1.73;1.20;;;;;;;;;;5052218;28;20028;-64
2022/05/31 09:03:08;;;;;;;4.50;1.15;;;;;;;;;;5051615;28;20031;-64
2022/05/31 09:05:41;;;;;;;8.05;1.40;;;;;;;;;;5052469;28;20116;-64
2022/05/31 09:08:16;;;;;;;1.67;0.93;;;;;;;;;;5064345;28;20055;-64
2022/05/31 09:10:51;;;;;;;5.63;1.10;;;;;;;;;;5052581;28;20039;-64
2022/05/31 09:13:29;;;;;;;2.17;1.00;;;;;;;;;;5050180;28;20304;-64
2022/05/31 09:15:58;;;;;;;3.72;1.05;;;;;;;;;;5050926;28;20494;-64
2022/05/31 09:18:31;;;;;;;4.78;1.00;;;;;;;;;;5051767;28;20037;-64
2022/05/31 09:20:59;;;;;;;3.67;1.30;;;;;;;;;;5052308;28;20500;-64
2022/05/31 09:23:34;;;;;;;2.97;0.90;;;;;;;;;;5036047;28;20033;-64
2022/05/31 09:26:09;;;;;;;1.65;1.10;;;;;;;;;;5051921;28;20040;-64
2022/05/31 09:28:36;;;;;;;2.75;0.90;;;;;;;;;;5051962;28;20037;-64
2022/05/31 09:31:06;;;;;;;5.40;1.30;;;;;;;;;;5051455;28;20029;-65
2022/05/31 09:33:38;;;;;;;2.28;1.00;;;;;;;;;;5051596;28;20029;-65
2022/05/31 09:36:18;;;;;;;5.25;1.00;;;;;;;;;;5051323;28;20480;-65
2022/05/31 09:38:44;;;;;;;4.97;1.10;;;;;;;;;;5051691;28;20485;-65
2022/05/31 09:41:16;;;;;;;2.40;0.88;;;;;;;;;;5051516;28;20028;-65
2022/05/31 09:43:58;;;;;;;3.23;0.90;;;;;;;;;;5055222;28;20017;-65
2022/05/31 09:46:34;;;;;;;3.40;1.00;;;;;;;;;;5054044;28;20485;-65
2022/05/31 09:49:01;;;;;;;5.78;1.35;;;;;;;;;;5051867;28;20033;-65
2022/05/31 09:51:37;;;;;;;6.55;0.80;;;;;;;;;;5051857;28;20021;-65
2022/05/31 09:57:21;;;;;;;2.22;1.10;;;;;;;;;;5050366;28;20036;-65
2022/05/31 10:00:16;;;;;;;6.25;1.08;;;;;;;;;;5047732;28;20102;-65
2022/05/31 10:03:11;;;;;;;3.25;0.80;;;;;;;;;;5050925;28;20028;-65
2022/05/31 10:05:39;;;;;;;2.45;0.70;;;;;;;;;;5041036;28;20051;-65
2022/05/31 10:08:24;;;;;;;5.28;0.82;;;;;;;;;;5051284;28;20032;-65
2022/05/31 10:10:50;;;;;;;2.95;0.90;;;;;;;;;;5045780;28;20035;-65
2022/05/31 10:13:33;;;;;;;3.33;1.05;;;;;;;;;;5050805;28;20086;-65
2022/05/31 10:15:59;;;;;;;;;;;;;;;;;;5046293;28;20033;-65
2022/05/31 10:18:27;;;;;;;1.10;0.75;;;;;;;;;;5050636;28;20007;-65
2022/05/31 10:20:55;;;;;;;2.35;0.68;;;;;;;;;;5051462;28;20021;-65
2022/05/31 10:23:22;;;;;;;3.85;0.80;;;;;;;;;;5050489;28;20032;-65
2022/05/31 10:26:06;;;;;;;1.30;0.77;;;;;;;;;;5050101;28;20028;-64
2022/05/31 10:29:06;;;;;;;2.10;0.80;;;;;;;;;;5043565;28;20115;-64
2022/05/31 10:31:59;;;;;;;4.30;1.10;;;;;;;;;;5052450;28;20024;-64
2022/05/31 10:34:25;;;;;;;4.00;0.93;;;;;;;;;;5049515;28;20124;-64
2022/05/31 10:36:53;;;;;;;4.10;0.82;;;;;;;;;;5050629;28;20017;-64
2022/05/31 10:39:22;;;;;;;0.77;0.65;;;;;;;;;;5050902;28;20021;-64
2022/05/31 10:41:49;;;;;;;0.65;0.60;;;;;;;;;;5055127;28;20013;-64
2022/05/31 10:44:36;;;;;;;1.35;0.77;;;;;;;;;;5051426;28;20476;-64
2022/05/31 10:47:02;;;;;;;2.25;0.90;;;;;;;;;;5053170;28;20103;-64
2022/05/31 10:49:28;;;;;;;4.75;0.80;;;;;;;;;;5050504;28;20056;-64
2022/05/31 10:51:57;;;;;;;4.88;0.98;;;;;;;;;;5051918;28;20033;-64
2022/05/31 10:54:33;;;;;;;1.85;1.00;;;;;;;;;;5051945;28;20037;-64
2022/05/31 10:57:18;;;;;;;2.92;0.95;;;;;;;;;;5052242;28;20037;-64
2022/05/31 10:59:44;;;;;;;2.50;0.82;;;;;;;;;;5044406;28;20067;-64
2022/05/31 11:02:34;;;;;;;2.47;0.80;;;;;;;;;;5051883;28;20090;-64
2022/05/31 11:05:00;;;;;;;1.42;0.68;;;;;;;;;;5051470;28;20029;-64
2022/05/31 11:07:27;;;;;;;2.33;0.68;;;;;;;;;;5053025;28;20033;-64
2022/05/31 11:13:01;;;;;;;2.85;1.20;;;;;;;;;;5049086;28;20033;-64
2022/05/31 11:15:31;;;;;;;1.95;0.80;;;;;;;;;;5054432;28;20041;-64
2022/05/31 11:18:09;;;;;;;1.02;0.73;;;;;;;;;;5047303;28;20473;-64
2022/05/31 11:20:53;;;;;;;3.38;0.80;;;;;;;;;;5051165;28;20083;-64
2022/05/31 11:23:38;;;;;;;2.33;1.13;;;;;;;;;;5048156;28;20039;-64
2022/05/31 11:26:07;;;;;;;3.70;0.90;;;;;;;;;;5051703;28;20032;-64
2022/05/31 11:28:51;;;;;;;5.65;1.13;;;;;;;;;;5052039;28;20076;-64
2022/05/31 11:31:30;;;;;;;4.10;1.13;;;;;;;;;;5056498;28;20028;-64
2022/05/31 11:33:56;;;;;;;1.60;1.08;;;;;;;;;;5047494;28;20060;-64
2022/05/31 11:36:40;;;;;;;1.50;1.10;;;;;;;;;;5052130;28;20029;-64
2022/05/31 11:39:25;;;;;;;4.22;0.70;;;;;;;;;;5049831;28;20025;-65
2022/05/31 11:41:53;;;;;;;1.80;0.90;;;;;;;;;;5055214;28;20068;-65
2022/05/31 11:44:48;;;;;;;3.47;0.65;;;;;;;;;;5055137;28;20116;-65
2022/05/31 11:47:36;;;;;;;2.05;0.88;;;;;;;;;;5012713;28;20113;-63
2022/05/31 11:50:34;;;;;;;3.20;0.75;;;;;;;;;;5012818;28;20465;-64
2022/05/31 11:53:12;;;;;;;2.80;0.80;;;;;;;;;;4970475;28;20042;-64
2022/05/31 11:55:54;;;;;;;2.38;0.70;;;;;;;;;;5012403;28;20045;-64
2022/05/31 11:58:23;;;;;;;1.50;0.70;;;;;;;;;;5012435;28;20541;-64
2022/05/31 12:00:49;;;;;;;2.33;1.05;;;;;;;;;;5012366;28;20417;-64
2022/05/31 12:03:38;;;;;;;2.42;0.93;;;;;;;;;;5012530;28;20065;-64
2022/05/31 12:06:08;;;;;;;1.38;0.70;;;;;;;;;;5002389;28;20371;-63
2022/05/31 12:08:38;;;;;;;2.05;0.80;;;;;;;;;;5011734;28;20611;-63
2022/05/31 12:11:33;;;;;;;2.83;1.02;;;;;;;;;;5012282;28;20580;-63
2022/05/31 12:14:00;;;;;;;5.05;0.88;;;;;;;;;;5004088;28;20054;-64
2022/05/31 12:16:26;;;;;;;2.55;0.70;;;;;;;;;;5005216;28;20124;-63
2022/05/31 12:18:58;;;;;;;4.05;0.98;;;;;;;;;;5011798;28;20133;-63
2022/05/31 12:21:37;;;;;;;3.13;0.80;;;;;;;;;;5012361;28;20368;-63
2022/05/31 12:24:26;;;;;;;2.88;0.73;;;;;;;;;;5026904;28;20037;-63
2022/05/31 12:27:01;;;;;;;3.47;1.23;;;;;;;;;;5048223;28;20126;-63
2022/05/31 12:29:28;;;;;;;4.45;0.80;;;;;;;;;;5053836;28;20044;-63
2022/05/31 12:32:14;;;;;;;2.88;0.80;;;;;;;;;;5053658;28;20104;-63
2022/05/31 12:34:41;;;;;;;4.18;0.80;;;;;;;;;;5053594;28;20497;-63
2022/05/31 12:37:14;;;;;;;5.10;0.90;;;;;;;;;;5053043;28;20028;-63
2022/05/31 12:39:46;;;;;;;3.15;0.93;;;;;;;;;;5053330;28;20033;-63
2022/05/31 12:42:15;;;;;;;4.00;0.88;;;;;;;;;;5059445;28;20035;-63
2022/05/31 12:44:42;;;;;;;2.90;0.90;;;;;;;;;;5053364;28;20117;-63
2022/05/31 12:47:17;;;;;;;2.63;0.85;;;;;;;;;;5049392;28;20025;-63
2022/05/31 12:49:52;;;;;;;3.20;0.80;;;;;;;;;;5045017;28;20021;-63
2022/05/31 12:54:56;;;;;;;6.85;1.08;;;;;;;;;;5044215;28;20477;-63
2022/05/31 13:00:37;;;;;;;2.05;1.10;;;;;;;;;;5049111;28;20025;-63
2022/05/31 13:03:05;;;;;;;3.78;1.00;;;;;;;;;;5053864;28;20489;-63
2022/05/31 13:05:31;;;;;;;4.65;1.00;;;;;;;;;;5052913;28;20027;-63
2022/05/31 13:08:13;;;;;;;2.60;0.88;;;;;;;;;;5059697;28;20025;-63
2022/05/31 13:19:34;;;;;;;4.05;0.80;;;;;;;;;;5056923;28;20037;-63
2022/05/31 13:22:01;;;;;;;6.47;1.00;;;;;;;;;;5053229;28;20090;-64
2022/05/31 13:24:28;;;;;;;4.63;0.80;;;;;;;;;;5053153;28;20392;-63
2022/05/31 13:26:54;;;;;;;2.00;0.80;;;;;;;;;;5053558;28;20033;-63
2022/05/31 13:29:20;;;;;;;1.25;0.77;;;;;;;;;;5053033;28;20071;-63
2022/05/31 13:31:52;;;;;;;1.88;1.00;;;;;;;;;;5052207;28;20442;-66
2022/05/31 13:34:30;;;;;;;2.45;1.42;;;;;;;;;;5053437;28;20032;-63
2022/05/31 13:36:57;;;;;;;4.47;0.80;;;;;;;;;;5052381;28;20047;-63
2022/05/31 13:39:23;;;;;;;3.83;1.00;;;;;;;;;;5051785;28;20060;-63
2022/05/31 13:41:49;;;;;;;2.20;0.80;;;;;;;;;;5052747;28;20448;-63
2022/05/31 13:44:20;;;;;;;1.38;0.70;;;;;;;;;;5053384;28;20028;-63
2022/05/31 13:46:46;;;;;;;2.25;0.80;;;;;;;;;;5051842;28;20124;-63
2022/05/31 13:49:12;;;;;;;3.42;0.90;;;;;;;;;;5052135;28;20029;-63
2022/05/31 13:51:48;;;;;;;4.43;1.02;;;;;;;;;;5052992;28;20025;-63
2022/05/31 13:54:15;;;;;;;3.63;1.10;;;;;;;;;;5052826;28;20045;-63
2022/05/31 13:56:44;;;;;;;3.75;0.80;;;;;;;;;;5050151;28;20037;-63
2022/05/31 13:59:10;;;;;;;4.50;0.68;;;;;;;;;;5040262;28;20041;-63
2022/05/31 14:01:39;;;;;;;4.75;0.98;;;;;;;;;;5050189;28;20040;-63
2022/05/31 14:04:08;;;;;;;2.83;0.80;;;;;;;;;;5041649;28;20033;-64
2022/05/31 14:06:35;;;;;;;1.98;0.80;;;;;;;;;;5046915;28;20032;-64
2022/05/31 14:09:02;;;;;;;3.33;0.90;;;;;;;;;;5043589;28;20039;-64
2022/05/31 14:11:31;;;;;;;3.50;0.93;;;;;;;;;;5047815;28;20025;-64
2022/05/31 14:13:59;;;;;;;3.42;0.93;;;;;;;;;;5050790;28;20017;-64
2022/05/31 14:16:45;;;;;;;1.85;0.80;;;;;;;;;;5047944;28;20036;-64
2022/05/31 14:19:18;;;;;;;1.92;0.80;;;;;;;;;;5043352;28;20134;-64
2022/05/31 14:21:46;;;;;;;3.42;0.82;;;;;;;;;;5041340;28;20028;-64
2022/05/31 14:24:16;;;;;;;4.30;1.00;;;;;;;;;;5046647;28;20021;-64
2022/05/31 14:26:43;;;;;;;5.05;1.17;;;;;;;;;;5045846;28;20048;-63
2022/05/31 14:29:12;;;;;;;4.32;0.80;;;;;;;;;;5046403;28;20115;-63
2022/05/31 14:31:44;;;;;;;5.38;1.40;;;;;;;;;;5039907;28;20024;-63
2022/05/31 14:34:22;;;;;;;4.03;0.90;;;;;;;;;;5043297;28;20043;-63
2022/05/31 14:36:49;;;;;;;4.40;0.93;;;;;;;;;;5045170;28;20473;-63
2022/05/31 14:39:19;;;;;;;3.70;0.80;;;;;;;;;;5051065;28;20029;-63
2022/05/31 14:41:45;;;;;;;4.63;1.10;;;;;;;;;;5050250;28;20013;-63
2022/05/31 14:44:30;;;;;;;2.42;0.90;;;;;;;;;;5050417;28;20025;-63
2022/05/31 14:47:09;;;;;;;3.92;1.35;;;;;;;;;;5050801;28;20489;-63
2022/05/31 14:49:46;;;;;;;4.55;0.93;;;;;;;;;;5047800;28;20371;-63
2022/05/31 14:52:26;;;;;;;4.95;1.10;;;;;;;;;;5043291;28;20029;-64
2022/05/31 14:54:52;;;;;;;3.42;0.80;;;;;;;;;;5043963;28;20437;-63
2022/05/31 14:57:18;;;;;;;4.57;0.90;;;;;;;;;;5049136;28;20043;-66
2022/05/31 14:59:46;;;;;;;5.88;1.60;;;;;;;;;;5049997;28;20124;-65
2022/05/31 15:02:17;;;;;;;3.85;1.00;;;;;;;;;;5048019;28;20023;-65
2022/05/31 15:04:48;;;;;;;1.83;0.80;;;;;;;;;;5049875;28;20124;-65
2022/05/31 15:07:23;;;;;;;3.10;0.85;;;;;;;;;;5044390;28;20036;-65
2022/05/31 15:10:09;;;;;;;3.92;0.80;;;;;;;;;;5040078;28;20033;-65
2022/05/31 15:20:54;;;;;;;6.68;0.88;;;;;;;;;;5045151;28;20702;-64
2022/05/31 15:23:21;;;;;;;5.90;0.80;;;;;;;;;;5036634;28;20478;-64
2022/05/31 15:25:52;;;;;;;3.22;0.85;;;;;;;;;;5044981;28;20048;-64
2022/05/31 15:28:18;;;;;;;4.65;1.00;;;;;;;;;;5046034;28;20495;-64
2022/05/31 15:30:44;;;;;;;1.52;0.90;;;;;;;;;;5046917;28;20401;-64
2022/05/31 15:33:11;;;;;;;6.40;1.00;;;;;;;;;;5047426;28;20042;-64
2022/05/31 15:35:37;;;;;;;4.45;0.93;;;;;;;;;;5050271;28;20037;-65
2022/05/31 15:38:06;;;;;;;2.25;0.90;;;;;;;;;;5043442;28;20115;-65
2022/05/31 15:40:32;;;;;;;1.90;0.80;;;;;;;;;;5042858;28;20363;-65
2022/05/31 15:42:58;;;;;;;5.50;0.80;;;;;;;;;;5045674;28;20049;-64
2022/05/31 15:45:24;;;;;;;3.80;0.80;;;;;;;;;;5045688;28;20148;-64
2022/05/31 15:47:50;;;;;;;4.22;1.02;;;;;;;;;;5043659;28;20036;-64
2022/05/31 15:50:16;;;;;;;2.55;0.90;;;;;;;;;;5049980;28;20431;-64
2022/05/31 15:52:43;;;;;;;2.58;0.88;;;;;;;;;;5055676;28;20120;-64
2022/05/31 15:55:17;;;;;;;4.07;1.02;;;;;;;;;;5053171;28;20082;-64
2022/05/31 15:57:44;;;;;;;1.25;0.70;;;;;;;;;;5055159;28;20047;-64
2022/05/31 16:00:13;;;;;;;4.53;1.17;;;;;;;;;;5051609;28;20379;-64
2022/05/31 16:02:40;;;;;;;3.22;1.00;;;;;;;;;;5046540;28;20032;-64
2022/05/31 16:05:06;;;;;;;5.10;0.95;;;;;;;;;;5052833;28;20024;-64
2022/05/31 16:07:40;;;;;;;5.10;0.70;;;;;;;;;;5042857;28;20489;-64
2022/05/31 16:10:17;;;;;;;4.00;0.95;;;;;;;;;;5050660;28;20024;-64